sensor_id;sensor_type;location;lat;lon;timestamp;P1;durP1;ratioP1;P2;durP2;ratioP2
62052;SDS011;48300;52.902;6.534;2023-11-21T00:01:58;33.00;;;10.95;;
62052;SDS011;48300;52.902;6.534;2023-11-21T00:04:24;25.25;;;9.50;;
62052;SDS011;48300;52.902;6.534;2023-11-21T00:06:52;30.63;;;9.80;;
62052;SDS011;48300;52.902;6.534;2023-11-21T00:09:19;27.67;;;10.25;;
62052;SDS011;48300;52.902;6.534;2023-11-21T00:11:45;35.45;;;10.95;;
62052;SDS011;48300;52.902;6.534;2023-11-21T00:14:11;35.47;;;10.90;;
62052;SDS011;48300;52.902;6.534;2023-11-21T00:16:37;28.48;;;9.82;;
62052;SDS011;48300;52.902;6.534;2023-11-21T00:19:04;27.75;;;10.57;;
62052;SDS011;48300;52.902;6.534;2023-11-21T00:21:30;37.72;;;10.95;;
62052;SDS011;48300;52.902;6.534;2023-11-21T00:23:57;28.15;;;11.70;;
62052;SDS011;48300;52.902;6.534;2023-11-21T00:26:23;30.90;;;10.00;;
62052;SDS011;48300;52.902;6.534;2023-11-21T00:28:49;27.48;;;9.93;;
62052;SDS011;48300;52.902;6.534;2023-11-21T00:31:15;38.35;;;9.93;;
62052;SDS011;48300;52.902;6.534;2023-11-21T00:33:41;42.83;;;11.88;;
62052;SDS011;48300;52.902;6.534;2023-11-21T00:36:08;28.95;;;10.55;;
62052;SDS011;48300;52.902;6.534;2023-11-21T00:38:35;30.23;;;10.30;;
62052;SDS011;48300;52.902;6.534;2023-11-21T00:41:01;30.08;;;9.73;;
62052;SDS011;48300;52.902;6.534;2023-11-21T00:43:28;32.65;;;10.02;;
62052;SDS011;48300;52.902;6.534;2023-11-21T00:45:54;31.27;;;10.45;;
62052;SDS011;48300;52.902;6.534;2023-11-21T00:48:19;32.88;;;9.48;;
62052;SDS011;48300;52.902;6.534;2023-11-21T00:50:45;32.78;;;10.52;;
62052;SDS011;48300;52.902;6.534;2023-11-21T00:53:12;32.95;;;10.75;;
62052;SDS011;48300;52.902;6.534;2023-11-21T00:55:38;27.20;;;10.32;;
62052;SDS011;48300;52.902;6.534;2023-11-21T00:58:05;23.67;;;9.52;;
62052;SDS011;48300;52.902;6.534;2023-11-21T01:00:32;26.85;;;9.70;;
62052;SDS011;48300;52.902;6.534;2023-11-21T01:02:58;26.33;;;9.07;;
62052;SDS011;48300;52.902;6.534;2023-11-21T01:05:24;27.08;;;9.15;;
62052;SDS011;48300;52.902;6.534;2023-11-21T01:07:50;33.00;;;9.90;;
62052;SDS011;48300;52.902;6.534;2023-11-21T01:10:16;30.38;;;9.68;;
62052;SDS011;48300;52.902;6.534;2023-11-21T01:12:42;31.80;;;9.23;;
62052;SDS011;48300;52.902;6.534;2023-11-21T01:15:08;32.33;;;9.80;;
62052;SDS011;48300;52.902;6.534;2023-11-21T01:17:37;30.77;;;9.98;;
62052;SDS011;48300;52.902;6.534;2023-11-21T01:20:03;28.52;;;9.93;;
62052;SDS011;48300;52.902;6.534;2023-11-21T01:22:36;27.60;;;9.23;;
62052;SDS011;48300;52.902;6.534;2023-11-21T01:25:02;30.58;;;9.18;;
62052;SDS011;48300;52.902;6.534;2023-11-21T01:27:29;29.10;;;9.25;;
62052;SDS011;48300;52.902;6.534;2023-11-21T01:29:55;35.53;;;10.30;;
62052;SDS011;48300;52.902;6.534;2023-11-21T01:32:21;33.75;;;9.68;;
62052;SDS011;48300;52.902;6.534;2023-11-21T01:34:47;29.58;;;9.35;;
62052;SDS011;48300;52.902;6.534;2023-11-21T01:37:14;30.02;;;9.10;;
62052;SDS011;48300;52.902;6.534;2023-11-21T01:39:40;36.15;;;9.77;;
62052;SDS011;48300;52.902;6.534;2023-11-21T01:42:06;28.83;;;9.43;;
62052;SDS011;48300;52.902;6.534;2023-11-21T01:44:32;30.63;;;9.63;;
62052;SDS011;48300;52.902;6.534;2023-11-21T01:46:58;41.50;;;9.90;;
62052;SDS011;48300;52.902;6.534;2023-11-21T01:49:24;26.17;;;9.23;;
62052;SDS011;48300;52.902;6.534;2023-11-21T01:51:50;26.55;;;8.90;;
62052;SDS011;48300;52.902;6.534;2023-11-21T01:54:17;37.05;;;9.88;;
62052;SDS011;48300;52.902;6.534;2023-11-21T01:56:45;36.17;;;10.33;;
62052;SDS011;48300;52.902;6.534;2023-11-21T01:59:12;25.90;;;9.05;;
62052;SDS011;48300;52.902;6.534;2023-11-21T02:01:39;31.83;;;9.83;;
62052;SDS011;48300;52.902;6.534;2023-11-21T02:04:06;49.50;;;10.77;;
62052;SDS011;48300;52.902;6.534;2023-11-21T02:06:33;34.53;;;10.60;;
62052;SDS011;48300;52.902;6.534;2023-11-21T02:08:59;36.97;;;9.77;;
62052;SDS011;48300;52.902;6.534;2023-11-21T02:11:25;33.25;;;10.55;;
62052;SDS011;48300;52.902;6.534;2023-11-21T02:13:52;41.67;;;10.70;;
62052;SDS011;48300;52.902;6.534;2023-11-21T02:16:19;25.05;;;9.77;;
62052;SDS011;48300;52.902;6.534;2023-11-21T02:18:46;37.55;;;11.15;;
62052;SDS011;48300;52.902;6.534;2023-11-21T02:21:13;35.43;;;10.93;;
62052;SDS011;48300;52.902;6.534;2023-11-21T02:23:39;45.47;;;10.70;;
62052;SDS011;48300;52.902;6.534;2023-11-21T02:26:09;41.88;;;11.20;;
62052;SDS011;48300;52.902;6.534;2023-11-21T02:28:35;29.27;;;10.00;;
62052;SDS011;48300;52.902;6.534;2023-11-21T02:31:02;36.80;;;11.68;;
62052;SDS011;48300;52.902;6.534;2023-11-21T02:33:29;46.92;;;11.93;;
62052;SDS011;48300;52.902;6.534;2023-11-21T02:35:59;40.80;;;11.75;;
62052;SDS011;48300;52.902;6.534;2023-11-21T02:38:24;40.63;;;10.43;;
62052;SDS011;48300;52.902;6.534;2023-11-21T02:40:51;39.38;;;11.73;;
62052;SDS011;48300;52.902;6.534;2023-11-21T02:43:17;33.75;;;11.75;;
62052;SDS011;48300;52.902;6.534;2023-11-21T02:45:43;42.00;;;11.30;;
62052;SDS011;48300;52.902;6.534;2023-11-21T02:48:09;33.28;;;11.70;;
62052;SDS011;48300;52.902;6.534;2023-11-21T02:50:35;37.70;;;11.63;;
62052;SDS011;48300;52.902;6.534;2023-11-21T02:53:01;39.00;;;11.65;;
62052;SDS011;48300;52.902;6.534;2023-11-21T02:55:27;40.25;;;10.85;;
62052;SDS011;48300;52.902;6.534;2023-11-21T02:57:54;42.03;;;10.80;;
62052;SDS011;48300;52.902;6.534;2023-11-21T03:00:21;41.30;;;12.13;;
62052;SDS011;48300;52.902;6.534;2023-11-21T03:02:49;47.95;;;11.90;;
62052;SDS011;48300;52.902;6.534;2023-11-21T03:05:15;34.88;;;11.48;;
62052;SDS011;48300;52.902;6.534;2023-11-21T03:07:41;43.30;;;12.30;;
62052;SDS011;48300;52.902;6.534;2023-11-21T03:10:08;33.22;;;11.93;;
62052;SDS011;48300;52.902;6.534;2023-11-21T03:12:35;38.05;;;12.13;;
62052;SDS011;48300;52.902;6.534;2023-11-21T03:15:01;38.13;;;11.63;;
62052;SDS011;48300;52.902;6.534;2023-11-21T03:17:27;36.05;;;11.85;;
62052;SDS011;48300;52.902;6.534;2023-11-21T03:19:54;37.63;;;12.02;;
62052;SDS011;48300;52.902;6.534;2023-11-21T03:22:20;39.97;;;12.65;;
62052;SDS011;48300;52.902;6.534;2023-11-21T03:24:46;45.20;;;12.32;;
62052;SDS011;48300;52.902;6.534;2023-11-21T03:27:12;34.63;;;12.25;;
62052;SDS011;48300;52.902;6.534;2023-11-21T03:29:38;40.05;;;12.65;;
62052;SDS011;48300;52.902;6.534;2023-11-21T03:32:04;36.72;;;12.40;;
62052;SDS011;48300;52.902;6.534;2023-11-21T03:34:32;29.90;;;11.27;;
62052;SDS011;48300;52.902;6.534;2023-11-21T03:36:58;33.78;;;11.50;;
62052;SDS011;48300;52.902;6.534;2023-11-21T03:39:24;32.08;;;11.98;;
62052;SDS011;48300;52.902;6.534;2023-11-21T03:41:50;30.50;;;11.52;;
62052;SDS011;48300;52.902;6.534;2023-11-21T03:44:17;34.60;;;11.93;;
62052;SDS011;48300;52.902;6.534;2023-11-21T03:46:43;32.65;;;11.45;;
62052;SDS011;48300;52.902;6.534;2023-11-21T03:49:09;33.35;;;12.52;;
62052;SDS011;48300;52.902;6.534;2023-11-21T03:51:36;32.85;;;11.55;;
62052;SDS011;48300;52.902;6.534;2023-11-21T03:54:02;45.80;;;12.75;;
62052;SDS011;48300;52.902;6.534;2023-11-21T03:56:28;38.53;;;13.20;;
62052;SDS011;48300;52.902;6.534;2023-11-21T03:58:55;36.97;;;12.88;;
62052;SDS011;48300;52.902;6.534;2023-11-21T04:01:24;34.28;;;13.73;;
62052;SDS011;48300;52.902;6.534;2023-11-21T04:03:50;46.30;;;14.10;;
62052;SDS011;48300;52.902;6.534;2023-11-21T04:06:17;35.25;;;13.73;;
62052;SDS011;48300;52.902;6.534;2023-11-21T04:08:46;39.60;;;12.15;;
62052;SDS011;48300;52.902;6.534;2023-11-21T04:11:12;37.17;;;12.73;;
62052;SDS011;48300;52.902;6.534;2023-11-21T04:13:41;29.42;;;12.43;;
62052;SDS011;48300;52.902;6.534;2023-11-21T04:16:07;32.80;;;12.80;;
62052;SDS011;48300;52.902;6.534;2023-11-21T04:18:35;39.38;;;13.90;;
62052;SDS011;48300;52.902;6.534;2023-11-21T04:21:01;35.13;;;13.15;;
62052;SDS011;48300;52.902;6.534;2023-11-21T04:23:28;32.30;;;12.50;;
62052;SDS011;48300;52.902;6.534;2023-11-21T04:25:54;31.58;;;13.00;;
62052;SDS011;48300;52.902;6.534;2023-11-21T04:28:22;36.60;;;12.57;;
62052;SDS011;48300;52.902;6.534;2023-11-21T04:30:48;36.97;;;13.43;;
62052;SDS011;48300;52.902;6.534;2023-11-21T04:33:14;41.35;;;13.48;;
62052;SDS011;48300;52.902;6.534;2023-11-21T04:35:40;38.90;;;13.50;;
62052;SDS011;48300;52.902;6.534;2023-11-21T04:38:06;33.58;;;12.82;;
62052;SDS011;48300;52.902;6.534;2023-11-21T04:40:32;30.27;;;11.50;;
62052;SDS011;48300;52.902;6.534;2023-11-21T04:42:58;33.80;;;11.77;;
62052;SDS011;48300;52.902;6.534;2023-11-21T04:45:23;34.95;;;13.18;;
62052;SDS011;48300;52.902;6.534;2023-11-21T04:47:49;32.38;;;12.02;;
62052;SDS011;48300;52.902;6.534;2023-11-21T04:50:17;36.35;;;12.50;;
62052;SDS011;48300;52.902;6.534;2023-11-21T04:52:44;40.10;;;12.55;;
62052;SDS011;48300;52.902;6.534;2023-11-21T04:55:10;31.83;;;12.35;;
62052;SDS011;48300;52.902;6.534;2023-11-21T04:57:36;31.13;;;11.63;;
62052;SDS011;48300;52.902;6.534;2023-11-21T05:00:03;27.77;;;11.00;;
62052;SDS011;48300;52.902;6.534;2023-11-21T05:02:31;46.25;;;11.65;;
62052;SDS011;48300;52.902;6.534;2023-11-21T05:04:59;24.77;;;11.52;;
62052;SDS011;48300;52.902;6.534;2023-11-21T05:07:25;28.25;;;11.45;;
62052;SDS011;48300;52.902;6.534;2023-11-21T05:12:20;19.65;;;9.90;;
62052;SDS011;48300;52.902;6.534;2023-11-21T05:14:46;25.40;;;11.20;;
62052;SDS011;48300;52.902;6.534;2023-11-21T05:17:12;25.77;;;11.13;;
62052;SDS011;48300;52.902;6.534;2023-11-21T05:19:38;21.73;;;10.07;;
62052;SDS011;48300;52.902;6.534;2023-11-21T05:22:05;24.92;;;10.57;;
62052;SDS011;48300;52.902;6.534;2023-11-21T05:24:31;26.30;;;11.13;;
62052;SDS011;48300;52.902;6.534;2023-11-21T05:26:57;23.35;;;10.95;;
62052;SDS011;48300;52.902;6.534;2023-11-21T05:29:23;24.75;;;11.10;;
62052;SDS011;48300;52.902;6.534;2023-11-21T05:31:50;25.00;;;11.10;;
62052;SDS011;48300;52.902;6.534;2023-11-21T05:34:16;22.58;;;10.75;;
62052;SDS011;48300;52.902;6.534;2023-11-21T05:36:43;24.05;;;10.98;;
62052;SDS011;48300;52.902;6.534;2023-11-21T05:39:10;24.52;;;11.27;;
62052;SDS011;48300;52.902;6.534;2023-11-21T05:41:37;24.83;;;12.02;;
62052;SDS011;48300;52.902;6.534;2023-11-21T05:44:03;26.38;;;11.57;;
62052;SDS011;48300;52.902;6.534;2023-11-21T05:46:29;24.38;;;11.02;;
62052;SDS011;48300;52.902;6.534;2023-11-21T05:48:55;25.08;;;11.50;;
62052;SDS011;48300;52.902;6.534;2023-11-21T05:51:21;26.95;;;11.40;;
62052;SDS011;48300;52.902;6.534;2023-11-21T05:53:49;26.23;;;10.93;;
62052;SDS011;48300;52.902;6.534;2023-11-21T05:56:16;27.45;;;12.57;;
62052;SDS011;48300;52.902;6.534;2023-11-21T05:58:43;26.42;;;11.40;;
62052;SDS011;48300;52.902;6.534;2023-11-21T06:01:09;27.25;;;12.02;;
62052;SDS011;48300;52.902;6.534;2023-11-21T06:03:37;27.38;;;11.65;;
62052;SDS011;48300;52.902;6.534;2023-11-21T06:06:04;26.90;;;12.05;;
62052;SDS011;48300;52.902;6.534;2023-11-21T06:08:30;31.30;;;12.48;;
62052;SDS011;48300;52.902;6.534;2023-11-21T06:10:56;27.67;;;12.57;;
62052;SDS011;48300;52.902;6.534;2023-11-21T06:13:22;23.30;;;10.57;;
62052;SDS011;48300;52.902;6.534;2023-11-21T06:15:49;26.23;;;11.18;;
62052;SDS011;48300;52.902;6.534;2023-11-21T06:18:15;22.95;;;11.00;;
62052;SDS011;48300;52.902;6.534;2023-11-21T06:20:44;24.70;;;10.23;;
62052;SDS011;48300;52.902;6.534;2023-11-21T06:23:10;20.33;;;8.90;;
62052;SDS011;48300;52.902;6.534;2023-11-21T06:25:36;17.73;;;8.70;;
62052;SDS011;48300;52.902;6.534;2023-11-21T06:28:02;20.10;;;9.52;;
62052;SDS011;48300;52.902;6.534;2023-11-21T06:30:29;22.33;;;9.23;;
62052;SDS011;48300;52.902;6.534;2023-11-21T06:32:55;21.85;;;9.38;;
62052;SDS011;48300;52.902;6.534;2023-11-21T06:35:21;24.17;;;9.38;;
62052;SDS011;48300;52.902;6.534;2023-11-21T06:37:47;26.80;;;10.32;;
62052;SDS011;48300;52.902;6.534;2023-11-21T06:40:13;31.63;;;12.07;;
62052;SDS011;48300;52.902;6.534;2023-11-21T06:42:46;25.77;;;10.82;;
62052;SDS011;48300;52.902;6.534;2023-11-21T06:45:12;28.25;;;10.93;;
62052;SDS011;48300;52.902;6.534;2023-11-21T06:47:38;29.75;;;13.25;;
62052;SDS011;48300;52.902;6.534;2023-11-21T06:50:04;36.97;;;17.90;;
62052;SDS011;48300;52.902;6.534;2023-11-21T06:52:32;25.30;;;9.43;;
62052;SDS011;48300;52.902;6.534;2023-11-21T06:54:58;28.10;;;10.57;;
62052;SDS011;48300;52.902;6.534;2023-11-21T06:57:24;24.33;;;9.20;;
62052;SDS011;48300;52.902;6.534;2023-11-21T06:59:50;21.55;;;9.30;;
62052;SDS011;48300;52.902;6.534;2023-11-21T07:02:16;25.48;;;9.63;;
62052;SDS011;48300;52.902;6.534;2023-11-21T07:04:44;22.33;;;9.50;;
62052;SDS011;48300;52.902;6.534;2023-11-21T07:07:11;25.85;;;9.60;;
62052;SDS011;48300;52.902;6.534;2023-11-21T07:09:37;18.48;;;7.90;;
62052;SDS011;48300;52.902;6.534;2023-11-21T07:12:03;23.95;;;8.77;;
62052;SDS011;48300;52.902;6.534;2023-11-21T07:14:32;19.55;;;8.07;;
62052;SDS011;48300;52.902;6.534;2023-11-21T07:16:58;20.15;;;8.02;;
62052;SDS011;48300;52.902;6.534;2023-11-21T07:19:24;36.83;;;21.80;;
62052;SDS011;48300;52.902;6.534;2023-11-21T07:21:50;17.23;;;8.00;;
62052;SDS011;48300;52.902;6.534;2023-11-21T07:24:16;47.50;;;23.08;;
62052;SDS011;48300;52.902;6.534;2023-11-21T07:26:42;31.95;;;16.15;;
62052;SDS011;48300;52.902;6.534;2023-11-21T07:29:08;154.98;;;91.47;;
62052;SDS011;48300;52.902;6.534;2023-11-21T07:31:36;94.10;;;57.00;;
62052;SDS011;48300;52.902;6.534;2023-11-21T07:34:03;37.45;;;19.45;;
62052;SDS011;48300;52.902;6.534;2023-11-21T07:36:29;26.42;;;16.02;;
62052;SDS011;48300;52.902;6.534;2023-11-21T07:38:55;28.25;;;15.88;;
62052;SDS011;48300;52.902;6.534;2023-11-21T07:41:21;27.73;;;10.70;;
62052;SDS011;48300;52.902;6.534;2023-11-21T07:43:47;31.30;;;17.13;;
62052;SDS011;48300;52.902;6.534;2023-11-21T07:46:13;27.85;;;15.02;;
62052;SDS011;48300;52.902;6.534;2023-11-21T07:48:40;34.85;;;20.15;;
62052;SDS011;48300;52.902;6.534;2023-11-21T07:51:07;30.77;;;17.30;;
62052;SDS011;48300;52.902;6.534;2023-11-21T07:53:33;26.40;;;14.23;;
62052;SDS011;48300;52.902;6.534;2023-11-21T07:56:06;28.15;;;12.40;;
62052;SDS011;48300;52.902;6.534;2023-11-21T07:58:32;27.05;;;15.68;;
62052;SDS011;48300;52.902;6.534;2023-11-21T08:00:59;25.23;;;11.45;;
62052;SDS011;48300;52.902;6.534;2023-11-21T08:03:25;19.90;;;9.48;;
62052;SDS011;48300;52.902;6.534;2023-11-21T08:05:52;22.30;;;10.07;;
62052;SDS011;48300;52.902;6.534;2023-11-21T08:08:18;30.73;;;15.18;;
62052;SDS011;48300;52.902;6.534;2023-11-21T08:10:44;20.73;;;8.98;;
62052;SDS011;48300;52.902;6.534;2023-11-21T08:13:13;21.70;;;9.43;;
62052;SDS011;48300;52.902;6.534;2023-11-21T08:15:42;21.75;;;7.95;;
62052;SDS011;48300;52.902;6.534;2023-11-21T08:18:11;18.27;;;9.52;;
62052;SDS011;48300;52.902;6.534;2023-11-21T08:20:39;19.13;;;8.65;;
62052;SDS011;48300;52.902;6.534;2023-11-21T08:23:06;18.73;;;7.88;;
62052;SDS011;48300;52.902;6.534;2023-11-21T08:25:32;34.50;;;14.32;;
62052;SDS011;48300;52.902;6.534;2023-11-21T08:27:59;22.85;;;9.75;;
62052;SDS011;48300;52.902;6.534;2023-11-21T08:30:26;27.55;;;10.05;;
62052;SDS011;48300;52.902;6.534;2023-11-21T08:32:55;20.83;;;8.85;;
62052;SDS011;48300;52.902;6.534;2023-11-21T08:35:23;21.88;;;8.90;;
62052;SDS011;48300;52.902;6.534;2023-11-21T08:37:51;27.05;;;12.00;;
62052;SDS011;48300;52.902;6.534;2023-11-21T08:40:18;30.67;;;14.23;;
62052;SDS011;48300;52.902;6.534;2023-11-21T08:42:44;30.10;;;14.32;;
62052;SDS011;48300;52.902;6.534;2023-11-21T08:45:11;29.88;;;15.20;;
62052;SDS011;48300;52.902;6.534;2023-11-21T08:47:38;26.33;;;11.40;;
62052;SDS011;48300;52.902;6.534;2023-11-21T08:50:05;20.67;;;9.30;;
62052;SDS011;48300;52.902;6.534;2023-11-21T08:52:32;26.13;;;13.40;;
62052;SDS011;48300;52.902;6.534;2023-11-21T08:54:58;20.67;;;10.15;;
62052;SDS011;48300;52.902;6.534;2023-11-21T08:57:32;23.55;;;10.82;;
62052;SDS011;48300;52.902;6.534;2023-11-21T08:59:58;21.13;;;10.05;;
62052;SDS011;48300;52.902;6.534;2023-11-21T09:02:28;29.38;;;13.82;;
62052;SDS011;48300;52.902;6.534;2023-11-21T09:04:54;37.90;;;20.30;;
62052;SDS011;48300;52.902;6.534;2023-11-21T09:07:20;39.90;;;17.55;;
62052;SDS011;48300;52.902;6.534;2023-11-21T09:09:46;45.38;;;23.35;;
62052;SDS011;48300;52.902;6.534;2023-11-21T09:12:13;42.88;;;20.20;;
62052;SDS011;48300;52.902;6.534;2023-11-21T09:14:39;47.03;;;19.58;;
62052;SDS011;48300;52.902;6.534;2023-11-21T09:17:05;38.10;;;17.35;;
62052;SDS011;48300;52.902;6.534;2023-11-21T09:19:36;33.75;;;15.38;;
62052;SDS011;48300;52.902;6.534;2023-11-21T09:22:02;46.88;;;21.60;;
62052;SDS011;48300;52.902;6.534;2023-11-21T09:24:28;40.65;;;17.30;;
62052;SDS011;48300;52.902;6.534;2023-11-21T09:26:55;42.47;;;18.25;;
62052;SDS011;48300;52.902;6.534;2023-11-21T09:29:21;33.58;;;14.68;;
62052;SDS011;48300;52.902;6.534;2023-11-21T09:31:47;32.65;;;15.60;;
62052;SDS011;48300;52.902;6.534;2023-11-21T09:36:44;33.92;;;16.23;;
62052;SDS011;48300;52.902;6.534;2023-11-21T09:41:52;29.05;;;15.45;;
62052;SDS011;48300;52.902;6.534;2023-11-21T09:44:23;29.55;;;15.15;;
62052;SDS011;48300;52.902;6.534;2023-11-21T09:46:53;28.88;;;15.15;;
62052;SDS011;48300;52.902;6.534;2023-11-21T09:49:21;39.83;;;19.88;;
62052;SDS011;48300;52.902;6.534;2023-11-21T09:51:50;28.25;;;15.32;;
62052;SDS011;48300;52.902;6.534;2023-11-21T09:54:19;30.38;;;16.00;;
62052;SDS011;48300;52.902;6.534;2023-11-21T09:56:46;28.10;;;13.65;;
62052;SDS011;48300;52.902;6.534;2023-11-21T09:59:13;26.55;;;13.88;;
62052;SDS011;48300;52.902;6.534;2023-11-21T10:01:40;23.15;;;12.07;;
62052;SDS011;48300;52.902;6.534;2023-11-21T10:04:07;26.30;;;13.98;;
62052;SDS011;48300;52.902;6.534;2023-11-21T10:06:38;25.48;;;14.85;;
62052;SDS011;48300;52.902;6.534;2023-11-21T10:09:06;23.73;;;12.02;;
62052;SDS011;48300;52.902;6.534;2023-11-21T10:11:36;24.67;;;12.20;;
62052;SDS011;48300;52.902;6.534;2023-11-21T10:14:03;24.30;;;12.35;;
62052;SDS011;48300;52.902;6.534;2023-11-21T10:16:30;26.10;;;12.32;;
62052;SDS011;48300;52.902;6.534;2023-11-21T10:18:57;23.10;;;10.60;;
62052;SDS011;48300;52.902;6.534;2023-11-21T10:21:23;21.35;;;10.95;;
62052;SDS011;48300;52.902;6.534;2023-11-21T10:23:50;22.25;;;11.40;;
62052;SDS011;48300;52.902;6.534;2023-11-21T10:26:18;25.67;;;11.27;;
62052;SDS011;48300;52.902;6.534;2023-11-21T10:28:58;21.55;;;10.68;;
62052;SDS011;48300;52.902;6.534;2023-11-21T10:31:26;21.60;;;11.32;;
62052;SDS011;48300;52.902;6.534;2023-11-21T10:33:52;21.67;;;10.27;;
62052;SDS011;48300;52.902;6.534;2023-11-21T10:36:27;27.05;;;11.85;;
62052;SDS011;48300;52.902;6.534;2023-11-21T10:38:54;21.90;;;11.52;;
62052;SDS011;48300;52.902;6.534;2023-11-21T10:41:20;21.73;;;12.05;;
62052;SDS011;48300;52.902;6.534;2023-11-21T10:43:46;22.55;;;11.98;;
62052;SDS011;48300;52.902;6.534;2023-11-21T10:46:14;21.75;;;11.50;;
62052;SDS011;48300;52.902;6.534;2023-11-21T10:48:41;21.67;;;11.18;;
62052;SDS011;48300;52.902;6.534;2023-11-21T10:51:08;22.92;;;12.43;;
62052;SDS011;48300;52.902;6.534;2023-11-21T10:53:38;20.80;;;11.15;;
62052;SDS011;48300;52.902;6.534;2023-11-21T10:56:06;20.15;;;10.35;;
62052;SDS011;48300;52.902;6.534;2023-11-21T10:58:32;18.25;;;10.05;;
62052;SDS011;48300;52.902;6.534;2023-11-21T11:00:58;18.10;;;9.20;;
62052;SDS011;48300;52.902;6.534;2023-11-21T11:03:25;17.02;;;9.52;;
62052;SDS011;48300;52.902;6.534;2023-11-21T11:05:51;16.75;;;8.60;;
62052;SDS011;48300;52.902;6.534;2023-11-21T11:08:20;19.52;;;8.68;;
62052;SDS011;48300;52.902;6.534;2023-11-21T11:10:51;15.15;;;7.57;;
62052;SDS011;48300;52.902;6.534;2023-11-21T11:13:17;13.95;;;7.38;;
62052;SDS011;48300;52.902;6.534;2023-11-21T11:15:46;16.00;;;8.30;;
62052;SDS011;48300;52.902;6.534;2023-11-21T11:18:13;15.07;;;7.75;;
62052;SDS011;48300;52.902;6.534;2023-11-21T11:20:39;14.57;;;7.63;;
62052;SDS011;48300;52.902;6.534;2023-11-21T11:23:30;14.52;;;7.35;;
62052;SDS011;48300;52.902;6.534;2023-11-21T11:25:55;11.93;;;6.97;;
62052;SDS011;48300;52.902;6.534;2023-11-21T11:28:29;12.70;;;7.22;;
62052;SDS011;48300;52.902;6.534;2023-11-21T11:36:16;12.00;;;6.20;;
62052;SDS011;48300;52.902;6.534;2023-11-21T11:38:46;11.95;;;6.40;;
62052;SDS011;48300;52.902;6.534;2023-11-21T11:41:15;10.75;;;6.13;;
62052;SDS011;48300;52.902;6.534;2023-11-21T11:43:49;11.05;;;5.97;;
62052;SDS011;48300;52.902;6.534;2023-11-21T11:46:15;12.25;;;6.38;;
62052;SDS011;48300;52.902;6.534;2023-11-21T11:48:41;9.73;;;5.70;;
62052;SDS011;48300;52.902;6.534;2023-11-21T11:53:43;10.25;;;5.47;;
62052;SDS011;48300;52.902;6.534;2023-11-21T11:58:50;10.68;;;5.72;;
62052;SDS011;48300;52.902;6.534;2023-11-21T12:01:18;12.10;;;6.22;;
62052;SDS011;48300;52.902;6.534;2023-11-21T12:03:44;13.07;;;5.93;;
62052;SDS011;48300;52.902;6.534;2023-11-21T12:06:12;11.02;;;6.25;;
62052;SDS011;48300;52.902;6.534;2023-11-21T12:08:38;10.20;;;6.28;;
62052;SDS011;48300;52.902;6.534;2023-11-21T12:11:04;11.25;;;6.18;;
62052;SDS011;48300;52.902;6.534;2023-11-21T12:13:30;9.48;;;5.50;;
62052;SDS011;48300;52.902;6.534;2023-11-21T12:15:56;10.48;;;6.07;;
62052;SDS011;48300;52.902;6.534;2023-11-21T12:18:22;9.95;;;6.00;;
62052;SDS011;48300;52.902;6.534;2023-11-21T12:23:17;9.27;;;5.20;;
62052;SDS011;48300;52.902;6.534;2023-11-21T12:25:43;9.75;;;5.53;;
62052;SDS011;48300;52.902;6.534;2023-11-21T12:28:09;10.45;;;5.43;;
62052;SDS011;48300;52.902;6.534;2023-11-21T12:30:36;9.70;;;5.20;;
62052;SDS011;48300;52.902;6.534;2023-11-21T12:33:06;8.43;;;5.22;;
62052;SDS011;48300;52.902;6.534;2023-11-21T12:35:34;10.90;;;5.30;;
62052;SDS011;48300;52.902;6.534;2023-11-21T12:38:01;11.27;;;5.40;;
62052;SDS011;48300;52.902;6.534;2023-11-21T12:40:28;10.98;;;5.35;;
62052;SDS011;48300;52.902;6.534;2023-11-21T12:42:55;8.65;;;5.55;;
62052;SDS011;48300;52.902;6.534;2023-11-21T12:45:25;9.93;;;5.47;;
62052;SDS011;48300;52.902;6.534;2023-11-21T12:47:55;11.02;;;5.05;;
62052;SDS011;48300;52.902;6.534;2023-11-21T12:50:24;8.80;;;4.80;;
62052;SDS011;48300;52.902;6.534;2023-11-21T12:52:54;8.02;;;5.30;;
62052;SDS011;48300;52.902;6.534;2023-11-21T12:55:21;11.52;;;5.47;;
62052;SDS011;48300;52.902;6.534;2023-11-21T12:57:51;10.52;;;5.55;;
62052;SDS011;48300;52.902;6.534;2023-11-21T13:00:19;13.35;;;5.32;;
62052;SDS011;48300;52.902;6.534;2023-11-21T13:02:55;10.35;;;5.30;;
62052;SDS011;48300;52.902;6.534;2023-11-21T13:05:27;10.38;;;5.20;;
62052;SDS011;48300;52.902;6.534;2023-11-21T13:07:55;8.25;;;4.72;;
62052;SDS011;48300;52.902;6.534;2023-11-21T13:10:25;10.70;;;4.65;;
62052;SDS011;48300;52.902;6.534;2023-11-21T13:12:54;10.45;;;4.63;;
62052;SDS011;48300;52.902;6.534;2023-11-21T13:15:23;10.57;;;5.50;;
62052;SDS011;48300;52.902;6.534;2023-11-21T13:17:49;8.20;;;4.80;;
62052;SDS011;48300;52.902;6.534;2023-11-21T13:20:16;11.38;;;5.35;;
62052;SDS011;48300;52.902;6.534;2023-11-21T13:22:51;13.80;;;5.30;;
62052;SDS011;48300;52.902;6.534;2023-11-21T13:25:20;10.65;;;5.32;;
62052;SDS011;48300;52.902;6.534;2023-11-21T13:27:46;8.75;;;5.13;;
62052;SDS011;48300;52.902;6.534;2023-11-21T13:30:13;9.65;;;5.20;;
62052;SDS011;48300;52.902;6.534;2023-11-21T13:32:48;12.63;;;5.35;;
62052;SDS011;48300;52.902;6.534;2023-11-21T13:35:17;9.45;;;5.00;;
62052;SDS011;48300;52.902;6.534;2023-11-21T13:37:52;9.50;;;5.07;;
62052;SDS011;48300;52.902;6.534;2023-11-21T13:40:21;9.90;;;5.22;;
62052;SDS011;48300;52.902;6.534;2023-11-21T13:42:53;8.68;;;5.13;;
62052;SDS011;48300;52.902;6.534;2023-11-21T13:45:23;9.40;;;5.45;;
62052;SDS011;48300;52.902;6.534;2023-11-21T13:47:50;8.02;;;4.70;;
62052;SDS011;48300;52.902;6.534;2023-11-21T13:50:17;10.23;;;4.85;;
62052;SDS011;48300;52.902;6.534;2023-11-21T13:52:48;9.90;;;4.93;;
62052;SDS011;48300;52.902;6.534;2023-11-21T13:55:14;9.48;;;5.53;;
62052;SDS011;48300;52.902;6.534;2023-11-21T13:57:43;10.25;;;4.88;;
62052;SDS011;48300;52.902;6.534;2023-11-21T14:00:14;9.75;;;5.22;;
62052;SDS011;48300;52.902;6.534;2023-11-21T14:03:00;9.00;;;4.80;;
62052;SDS011;48300;52.902;6.534;2023-11-21T14:05:27;10.25;;;5.15;;
62052;SDS011;48300;52.902;6.534;2023-11-21T14:07:57;9.57;;;4.90;;
62052;SDS011;48300;52.902;6.534;2023-11-21T14:10:29;11.68;;;5.38;;
62052;SDS011;48300;52.902;6.534;2023-11-21T14:13:08;8.35;;;5.00;;
62052;SDS011;48300;52.902;6.534;2023-11-21T14:15:36;9.40;;;4.90;;
62052;SDS011;48300;52.902;6.534;2023-11-21T14:18:11;9.07;;;5.05;;
62052;SDS011;48300;52.902;6.534;2023-11-21T14:20:39;9.85;;;4.70;;
62052;SDS011;48300;52.902;6.534;2023-11-21T14:23:07;13.10;;;5.40;;
62052;SDS011;48300;52.902;6.534;2023-11-21T14:25:34;8.68;;;4.88;;
62052;SDS011;48300;52.902;6.534;2023-11-21T14:30:28;8.00;;;4.78;;
62052;SDS011;48300;52.902;6.534;2023-11-21T14:32:57;11.27;;;6.07;;
62052;SDS011;48300;52.902;6.534;2023-11-21T14:35:23;12.70;;;6.75;;
62052;SDS011;48300;52.902;6.534;2023-11-21T14:37:49;10.73;;;4.75;;
62052;SDS011;48300;52.902;6.534;2023-11-21T14:40:16;6.85;;;4.38;;
62052;SDS011;48300;52.902;6.534;2023-11-21T14:42:42;8.40;;;5.40;;
62052;SDS011;48300;52.902;6.534;2023-11-21T14:45:12;9.75;;;5.40;;
62052;SDS011;48300;52.902;6.534;2023-11-21T14:47:41;12.75;;;7.13;;
62052;SDS011;48300;52.902;6.534;2023-11-21T14:50:13;11.80;;;6.80;;
62052;SDS011;48300;52.902;6.534;2023-11-21T14:53:02;12.95;;;6.90;;